createdAt,value
2018-09-25T00:00:33.346Z,7.00
2018-09-25T00:03:06.994Z,7.00
2018-09-25T00:05:40.697Z,7.00
2018-09-25T00:08:14.297Z,7.00
2018-09-25T00:10:47.846Z,7.00
2018-09-25T00:13:21.360Z,7.00
2018-09-25T00:15:54.961Z,7.00
2018-09-25T00:18:28.556Z,6.90
2018-09-25T00:21:02.206Z,6.90
2018-09-25T00:23:35.806Z,7.00
2018-09-25T00:26:09.351Z,6.90
2018-09-25T00:28:42.934Z,6.90
2018-09-25T00:31:16.545Z,6.90
2018-09-25T00:33:50.139Z,6.90
2018-09-25T00:36:30.833Z,6.90
2018-09-25T00:39:04.524Z,6.90
2018-09-25T00:41:38.224Z,6.90
2018-09-25T00:44:11.801Z,6.80
2018-09-25T00:46:45.354Z,6.90
2018-09-25T00:49:18.908Z,6.90
2018-09-25T00:51:52.513Z,6.80
2018-09-25T00:54:26.042Z,6.80
2018-09-25T00:56:59.749Z,6.80
2018-09-25T00:59:33.427Z,6.80
2018-09-25T01:02:07.238Z,6.80
2018-09-25T01:04:40.817Z,6.80
2018-09-25T01:07:14.418Z,6.70
2018-09-25T01:09:47.800Z,6.70
2018-09-25T01:12:21.425Z,6.70
2018-09-25T01:14:55.026Z,6.60
2018-09-25T01:17:28.536Z,6.70
2018-09-25T01:20:01.984Z,6.60
2018-09-25T01:22:35.671Z,6.50
2018-09-25T01:25:09.448Z,6.50
2018-09-25T01:27:43.041Z,6.50
2018-09-25T01:30:16.668Z,6.50
2018-09-25T01:32:50.121Z,6.50
2018-09-25T01:35:23.826Z,6.50
2018-09-25T01:37:57.461Z,6.50
2018-09-25T01:40:31.058Z,6.50
2018-09-25T01:43:04.594Z,6.50
2018-09-25T01:45:38.142Z,6.50
2018-09-25T01:48:11.629Z,6.50
2018-09-25T01:50:45.369Z,6.50
2018-09-25T01:53:19.129Z,6.50
2018-09-25T01:55:52.741Z,6.50
2018-09-25T01:58:26.391Z,6.50
2018-09-25T02:00:59.841Z,6.50
2018-09-25T02:03:33.505Z,6.40
2018-09-25T02:06:07.101Z,6.40
2018-09-25T02:08:40.727Z,6.40
2018-09-25T02:11:14.362Z,6.40
2018-09-25T02:13:47.809Z,6.40
2018-09-25T02:16:21.494Z,6.40
2018-09-25T02:18:55.231Z,6.30
2018-09-25T02:21:28.881Z,6.30
2018-09-25T02:24:02.488Z,6.30
2018-09-25T02:26:36.180Z,6.40
2018-09-25T02:29:09.810Z,6.40
2018-09-25T02:31:43.433Z,6.30
2018-09-25T02:34:16.941Z,6.30
2018-09-25T02:36:50.886Z,6.20
2018-09-25T02:39:24.645Z,6.20
2018-09-25T02:41:58.327Z,6.20
2018-09-25T02:44:31.835Z,6.20
2018-09-25T02:47:05.545Z,6.20
2018-09-25T02:49:39.310Z,6.20
2018-09-25T02:52:12.785Z,6.10
2018-09-25T02:54:46.477Z,6.10
2018-09-25T02:57:20.070Z,6.10
2018-09-25T02:59:53.601Z,6.10
2018-09-25T03:02:27.173Z,6.10
2018-09-25T03:05:00.999Z,6.10
2018-09-25T03:07:34.609Z,6.10
2018-09-25T03:10:08.168Z,6.10
2018-09-25T03:12:41.818Z,6.10
2018-09-25T03:15:15.409Z,6.10
2018-09-25T03:17:48.956Z,6.00
2018-09-25T03:20:22.582Z,6.00
2018-09-25T03:22:56.238Z,6.00
2018-09-25T03:25:29.959Z,6.00
2018-09-25T03:28:03.392Z,6.00
2018-09-25T03:30:37.040Z,6.00
2018-09-25T03:33:10.606Z,5.90
2018-09-25T03:35:44.375Z,5.90
2018-09-25T03:38:17.996Z,5.80
2018-09-25T03:40:51.605Z,5.80
2018-09-25T03:43:25.227Z,5.80
2018-09-25T03:45:58.867Z,5.80
2018-09-25T03:48:32.558Z,5.80
2018-09-25T03:51:06.116Z,5.80
2018-09-25T03:53:39.741Z,5.80
2018-09-25T03:56:13.310Z,5.70
2018-09-25T03:58:46.955Z,5.80
2018-09-25T04:01:20.524Z,5.70
2018-09-25T04:03:54.041Z,5.70
2018-09-25T04:06:27.784Z,5.70
2018-09-25T04:09:01.359Z,5.70
2018-09-25T04:11:34.990Z,5.70
2018-09-25T04:14:08.546Z,5.70
2018-09-25T04:16:42.334Z,5.70
2018-09-25T04:19:15.854Z,5.70
2018-09-25T04:21:49.510Z,5.70
2018-09-25T04:24:23.232Z,5.60
2018-09-25T04:26:56.803Z,5.60
2018-09-25T04:29:30.386Z,5.60
2018-09-25T04:32:04.013Z,5.60
2018-09-25T04:34:37.560Z,5.60
2018-09-25T04:37:11.356Z,5.60
2018-09-25T04:39:45.017Z,5.60
2018-09-25T04:42:18.882Z,5.60
2018-09-25T04:44:52.425Z,5.60
2018-09-25T04:47:26.099Z,5.60
2018-09-25T04:49:59.711Z,5.60
2018-09-25T04:52:33.365Z,5.60
2018-09-25T04:55:06.913Z,5.60
2018-09-25T04:57:41.286Z,5.60
2018-09-25T05:00:14.818Z,5.50
2018-09-25T05:02:48.595Z,5.50
2018-09-25T05:05:22.335Z,5.50
2018-09-25T05:07:55.981Z,5.50
2018-09-25T05:10:29.507Z,5.50
2018-09-25T05:13:03.254Z,5.50
2018-09-25T05:15:37.042Z,5.50
2018-09-25T05:18:10.860Z,5.60
2018-09-25T05:20:44.361Z,5.60
2018-09-25T05:23:17.862Z,5.60
2018-09-25T05:25:52.782Z,5.60
2018-09-25T05:28:26.621Z,5.60
2018-09-25T05:31:00.470Z,5.70
2018-09-25T05:33:34.269Z,5.70
2018-09-25T05:36:07.825Z,5.70
2018-09-25T05:38:41.652Z,5.70
2018-09-25T05:41:15.438Z,5.70
2018-09-25T05:43:49.062Z,5.70
2018-09-25T05:46:22.697Z,5.70
2018-09-25T05:48:56.367Z,5.70
2018-09-25T05:51:29.837Z,5.70
2018-09-25T05:54:03.488Z,5.80
2018-09-25T05:56:37.037Z,5.80
2018-09-25T05:59:10.751Z,5.80
2018-09-25T06:01:44.473Z,5.90
2018-09-25T06:04:18.300Z,5.90
2018-09-25T06:06:51.976Z,5.90
2018-09-25T06:09:25.557Z,6.00
2018-09-25T06:11:59.095Z,6.00
2018-09-25T06:14:32.713Z,6.00
2018-09-25T06:17:06.556Z,6.10
2018-09-25T06:19:40.527Z,6.10
2018-09-25T06:22:14.068Z,6.20
2018-09-25T06:24:47.737Z,6.30
2018-09-25T06:27:21.328Z,6.30
2018-09-25T06:29:55.177Z,6.40
2018-09-25T06:32:31.054Z,6.40
2018-09-25T06:35:04.776Z,6.40
2018-09-25T06:37:38.406Z,6.50
2018-09-25T06:40:11.979Z,6.50
2018-09-25T06:42:45.831Z,6.60
2018-09-25T06:45:19.501Z,6.60
2018-09-25T06:47:52.917Z,6.60
2018-09-25T06:50:26.602Z,6.70
2018-09-25T06:53:00.338Z,6.70
2018-09-25T06:55:33.890Z,6.80
2018-09-25T06:58:07.494Z,6.90
2018-09-25T07:00:41.087Z,7.00
2018-09-25T07:03:14.836Z,6.90
2018-09-25T07:05:48.432Z,7.00
2018-09-25T07:08:22.253Z,7.10
2018-09-25T07:10:55.886Z,7.20
2018-09-25T07:13:29.446Z,7.30
2018-09-25T07:16:03.037Z,7.30
2018-09-25T07:18:36.714Z,7.40
2018-09-25T07:21:10.234Z,7.50
2018-09-25T07:23:43.829Z,7.50
2018-09-25T07:26:17.682Z,7.50
2018-09-25T07:28:51.240Z,7.70
2018-09-25T07:31:25.094Z,7.70
2018-09-25T07:33:58.668Z,7.90
2018-09-25T07:36:32.113Z,7.90
2018-09-25T07:39:05.761Z,8.00
2018-09-25T07:41:39.361Z,8.30
2018-09-25T07:44:12.892Z,8.60
2018-09-25T07:46:46.715Z,8.90
2018-09-25T07:49:20.361Z,9.10
2018-09-25T07:51:54.033Z,9.10
2018-09-25T07:54:27.618Z,9.10
2018-09-25T07:57:01.185Z,9.10
2018-09-25T07:59:34.757Z,9.00
2018-09-25T08:02:08.366Z,9.10
2018-09-25T08:04:42.193Z,9.10
2018-09-25T08:07:15.941Z,9.10
2018-09-25T08:09:49.587Z,9.20
2018-09-25T08:12:23.206Z,9.10
2018-09-25T08:14:56.820Z,9.20
2018-09-25T08:17:30.340Z,9.20
2018-09-25T08:20:03.898Z,9.20
2018-09-25T08:22:37.538Z,9.30
2018-09-25T08:25:11.315Z,9.40
2018-09-25T08:27:44.903Z,9.60
2018-09-25T08:30:18.478Z,9.60
2018-09-25T08:32:52.139Z,9.70
2018-09-25T08:35:25.716Z,9.80
2018-09-25T08:37:59.195Z,9.90
2018-09-25T08:40:32.761Z,9.90
2018-09-25T08:43:06.473Z,10.00
2018-09-25T08:45:40.087Z,10.20
2018-09-25T08:48:13.649Z,10.30
2018-09-25T08:50:47.185Z,10.40
2018-09-25T08:53:20.983Z,10.50
2018-09-25T08:55:54.551Z,10.60
2018-09-25T08:58:28.094Z,10.60
2018-09-25T09:01:01.806Z,10.60
2018-09-25T09:03:35.480Z,10.70
2018-09-25T09:06:09.020Z,10.80
2018-09-25T09:08:42.821Z,11.00
2018-09-25T09:11:16.397Z,11.10
2018-09-25T09:13:49.941Z,11.20
2018-09-25T09:16:23.572Z,11.20
2018-09-25T09:18:57.204Z,11.30
2018-09-25T09:21:30.873Z,11.40
2018-09-25T09:24:04.537Z,11.40
2018-09-25T09:26:38.094Z,11.70
2018-09-25T09:29:11.633Z,11.80
2018-09-25T09:31:45.214Z,11.90
2018-09-25T09:34:18.777Z,12.00
2018-09-25T09:36:52.416Z,12.20
2018-09-25T09:39:25.920Z,12.20
2018-09-25T09:41:59.663Z,12.30
2018-09-25T09:44:33.148Z,12.50
2018-09-25T09:47:06.817Z,12.60
2018-09-25T09:49:40.409Z,12.70
2018-09-25T09:52:14.045Z,12.70
2018-09-25T09:54:47.674Z,12.80
2018-09-25T09:57:21.233Z,12.70
2018-09-25T09:59:54.818Z,12.90
2018-09-25T10:02:28.444Z,12.90
2018-09-25T10:05:02.039Z,12.90
2018-09-25T10:07:35.621Z,13.00
2018-09-25T10:10:09.246Z,13.10
2018-09-25T10:12:42.744Z,13.10
2018-09-25T10:15:16.363Z,13.20
2018-09-25T10:17:49.917Z,13.20
2018-09-25T10:20:23.711Z,13.40
2018-09-25T10:22:57.263Z,13.40
2018-09-25T10:25:30.884Z,13.00
2018-09-25T10:28:04.493Z,12.90
2018-09-25T10:30:38.129Z,13.00
2018-09-25T10:33:12.357Z,13.10
2018-09-25T10:35:45.957Z,13.10
2018-09-25T10:38:19.639Z,12.70
2018-09-25T10:40:53.388Z,12.80
2018-09-25T10:43:26.975Z,13.10
2018-09-25T10:46:00.750Z,13.00
2018-09-25T10:48:34.322Z,12.70
2018-09-25T10:51:08.162Z,12.70
2018-09-25T10:53:41.920Z,12.90
2018-09-25T10:56:15.511Z,12.80
2018-09-25T10:58:49.038Z,12.90
2018-09-25T11:01:22.666Z,12.90
2018-09-25T11:03:56.227Z,13.20
2018-09-25T11:06:29.949Z,13.20
2018-09-25T11:09:03.446Z,13.20
2018-09-25T11:11:37.071Z,13.40
2018-09-25T11:14:10.642Z,13.60
2018-09-25T11:16:44.345Z,13.80
2018-09-25T11:19:17.953Z,13.90
2018-09-25T11:21:51.565Z,14.00
2018-09-25T11:24:25.155Z,14.00
2018-09-25T11:26:58.925Z,14.00
2018-09-25T11:29:32.750Z,14.00
2018-09-25T11:32:06.143Z,14.10
2018-09-25T11:34:39.861Z,14.20
2018-09-25T11:37:13.445Z,14.50
2018-09-25T11:39:47.166Z,14.50
2018-09-25T11:42:20.702Z,14.20
2018-09-25T11:44:54.510Z,14.00
2018-09-25T11:47:28.329Z,14.10
2018-09-25T11:50:02.051Z,14.10
2018-09-25T11:52:35.609Z,14.20
2018-09-25T11:55:09.197Z,14.40
2018-09-25T11:57:43.042Z,14.40
2018-09-25T12:00:16.613Z,14.70
2018-09-25T12:02:50.373Z,14.40
2018-09-25T12:05:24.033Z,14.60
2018-09-25T12:07:57.614Z,14.60
2018-09-25T12:10:31.216Z,14.40
2018-09-25T12:13:04.801Z,14.30
2018-09-25T12:15:38.294Z,14.30
2018-09-25T12:18:12.045Z,14.60
2018-09-25T12:20:45.601Z,14.70
2018-09-25T12:23:19.432Z,14.70
2018-09-25T12:25:52.958Z,14.40
2018-09-25T12:28:26.638Z,14.20
2018-09-25T12:31:00.487Z,14.30
2018-09-25T12:33:34.146Z,14.50
2018-09-25T12:36:07.774Z,14.80
2018-09-25T12:38:41.344Z,15.10
2018-09-25T12:41:15.003Z,15.00
2018-09-25T12:43:48.645Z,15.10
2018-09-25T12:46:22.286Z,15.30
2018-09-25T12:48:55.780Z,15.40
2018-09-25T12:51:29.389Z,15.40
2018-09-25T12:54:03.005Z,15.20
2018-09-25T12:56:36.625Z,15.10
2018-09-25T12:59:10.286Z,15.10
2018-09-25T13:01:44.073Z,14.70
2018-09-25T13:04:17.633Z,15.00
2018-09-25T13:06:51.130Z,15.40
2018-09-25T13:09:24.849Z,15.50
2018-09-25T13:11:58.489Z,15.60
2018-09-25T13:14:32.080Z,15.90
2018-09-25T13:17:05.646Z,16.20
2018-09-25T13:19:39.293Z,15.90
2018-09-25T13:22:12.923Z,15.60
2018-09-25T13:24:46.569Z,15.50
2018-09-25T13:27:20.193Z,15.60
2018-09-25T13:29:53.728Z,15.50
2018-09-25T13:32:27.542Z,15.40
2018-09-25T13:35:01.434Z,15.40
2018-09-25T13:37:35.073Z,15.80
2018-09-25T13:40:08.864Z,15.70
2018-09-25T13:42:42.518Z,15.80
2018-09-25T13:45:16.024Z,16.40
2018-09-25T13:47:49.879Z,17.40
2018-09-25T13:50:23.425Z,18.60
2018-09-25T13:52:57.017Z,20.20
2018-09-25T13:55:30.602Z,21.30
2018-09-25T13:58:04.186Z,22.20
2018-09-25T14:00:37.731Z,23.90
2018-09-25T14:03:11.502Z,24.60
2018-09-25T14:05:45.089Z,25.00
2018-09-25T14:08:18.724Z,24.40
2018-09-25T14:10:52.253Z,24.90
2018-09-25T14:13:26.004Z,24.70
2018-09-25T14:15:59.582Z,26.00
2018-09-25T14:18:33.338Z,25.60
2018-09-25T14:21:06.917Z,24.60
2018-09-25T14:23:40.489Z,24.30
2018-09-25T14:26:14.168Z,24.80
2018-09-25T14:28:47.848Z,24.30
2018-09-25T14:31:21.509Z,26.90
2018-09-25T14:33:55.263Z,27.00
2018-09-25T14:36:28.879Z,27.70
2018-09-25T14:39:02.464Z,28.30
2018-09-25T14:41:36.093Z,27.90
2018-09-25T14:44:09.534Z,26.90
2018-09-25T14:46:43.086Z,26.50
2018-09-25T14:49:16.790Z,27.50
2018-09-25T14:51:50.546Z,27.50
2018-09-25T14:54:24.315Z,27.80
2018-09-25T14:56:58.022Z,27.80
2018-09-25T14:59:31.834Z,28.50
2018-09-25T15:02:05.415Z,29.70
2018-09-25T15:04:39.426Z,28.40
2018-09-25T15:07:13.050Z,26.10
2018-09-25T15:09:46.681Z,26.70
2018-09-25T15:12:20.218Z,25.10
2018-09-25T15:14:53.878Z,23.70
2018-09-25T15:17:27.596Z,22.20
2018-09-25T15:20:01.137Z,21.80
2018-09-25T15:22:34.774Z,22.10
2018-09-25T15:25:08.408Z,22.70
2018-09-25T15:27:42.064Z,22.90
2018-09-25T15:30:15.549Z,23.50
2018-09-25T15:32:49.297Z,23.90
2018-09-25T15:35:22.892Z,24.50
2018-09-25T15:37:56.387Z,24.50
2018-09-25T15:40:30.017Z,25.60
2018-09-25T15:43:03.761Z,25.80
2018-09-25T15:45:37.459Z,26.10
2018-09-25T15:48:11.007Z,25.50
2018-09-25T15:50:44.642Z,24.60
2018-09-25T15:53:18.238Z,25.20
2018-09-25T15:55:51.829Z,24.10
2018-09-25T15:58:25.624Z,24.20
2018-09-25T16:00:59.267Z,24.60
2018-09-25T16:03:32.827Z,23.50
2018-09-25T16:06:07.013Z,22.80
2018-09-25T16:08:40.600Z,20.80
2018-09-25T16:11:14.153Z,20.50
2018-09-25T16:13:47.836Z,20.50
2018-09-25T16:16:21.439Z,20.50
2018-09-25T16:18:54.985Z,20.60
2018-09-25T16:21:28.537Z,20.70
2018-09-25T16:24:02.192Z,19.90
2018-09-25T16:26:35.873Z,19.90
2018-09-25T16:29:09.373Z,19.80
2018-09-25T16:31:42.975Z,19.60
2018-09-25T16:34:16.576Z,19.60
2018-09-25T16:36:50.178Z,19.50
2018-09-25T16:39:23.762Z,19.00
2018-09-25T16:41:57.374Z,18.70
2018-09-25T16:44:30.917Z,18.30
2018-09-25T16:47:04.643Z,17.50
2018-09-25T16:49:38.299Z,16.70
2018-09-25T16:52:11.911Z,16.00
2018-09-25T16:54:45.528Z,15.50
2018-09-25T16:57:19.139Z,15.00
2018-09-25T16:59:52.607Z,14.70
2018-09-25T17:02:26.335Z,14.30
2018-09-25T17:04:59.937Z,14.10
2018-09-25T17:07:33.510Z,14.00
2018-09-25T17:10:07.364Z,14.00
2018-09-25T17:12:40.968Z,14.00
2018-09-25T17:15:14.682Z,13.90
2018-09-25T17:17:48.274Z,13.90
2018-09-25T17:20:21.823Z,13.90
2018-09-25T17:22:55.360Z,13.80
2018-09-25T17:25:29.099Z,13.70
2018-09-25T17:28:02.892Z,13.50
2018-09-25T17:30:36.688Z,13.40
2018-09-25T17:33:10.243Z,13.30
2018-09-25T17:35:43.957Z,13.20
2018-09-25T17:38:17.494Z,13.10
2018-09-25T17:40:51.258Z,13.00
2018-09-25T17:43:25.139Z,13.00
2018-09-25T17:45:58.733Z,12.90
2018-09-25T17:48:32.328Z,12.80
2018-09-25T17:51:05.897Z,12.80
2018-09-25T17:53:39.627Z,12.70
2018-09-25T17:56:13.289Z,12.70
2018-09-25T17:58:47.020Z,12.60
2018-09-25T18:01:20.570Z,12.50
2018-09-25T18:03:54.211Z,12.50
2018-09-25T18:06:27.917Z,12.40
2018-09-25T18:09:01.657Z,12.40
2018-09-25T18:11:35.474Z,12.30
2018-09-25T18:14:09.253Z,12.30
2018-09-25T18:16:42.997Z,12.30
2018-09-25T18:19:16.830Z,12.20
2018-09-25T18:21:50.386Z,12.20
2018-09-25T18:24:24.041Z,12.20
2018-09-25T18:26:57.637Z,12.20
2018-09-25T18:29:31.241Z,12.20
2018-09-25T18:32:04.802Z,12.10
2018-09-25T18:34:38.273Z,12.10
2018-09-25T18:37:11.818Z,12.10
2018-09-25T18:39:45.412Z,12.00
2018-09-25T18:42:19.205Z,11.90
2018-09-25T18:44:52.869Z,11.90
2018-09-25T18:47:26.485Z,11.80
2018-09-25T18:50:00.399Z,11.70
2018-09-25T18:52:33.968Z,11.70
2018-09-25T18:55:07.604Z,11.60
2018-09-25T18:57:41.317Z,11.60
2018-09-25T19:00:14.953Z,11.50
2018-09-25T19:02:48.501Z,11.50
2018-09-25T19:05:22.336Z,11.40
2018-09-25T19:07:55.707Z,11.50
2018-09-25T19:10:29.675Z,11.40
2018-09-25T19:13:03.388Z,11.40
2018-09-25T19:15:37.442Z,11.40
2018-09-25T19:18:10.938Z,11.30
2018-09-25T19:20:44.707Z,11.30
2018-09-25T19:23:18.574Z,11.20
2018-09-25T19:25:52.165Z,11.20
2018-09-25T19:28:25.754Z,11.10
2018-09-25T19:30:59.449Z,11.10
2018-09-25T19:33:32.999Z,11.00
2018-09-25T19:36:06.597Z,11.00
2018-09-25T19:38:40.822Z,11.00
2018-09-25T19:41:14.484Z,10.90
2018-09-25T19:43:48.119Z,10.90
2018-09-25T19:46:22.295Z,10.90
2018-09-25T19:48:56.010Z,10.90
2018-09-25T19:51:29.620Z,10.80
2018-09-25T19:54:03.304Z,10.80
2018-09-25T19:56:36.891Z,10.80
2018-09-25T19:59:10.777Z,10.80
2018-09-25T20:01:44.212Z,10.70
2018-09-25T20:04:17.980Z,10.70
2018-09-25T20:06:51.820Z,10.60
2018-09-25T20:09:25.465Z,10.60
2018-09-25T20:11:59.058Z,10.50
2018-09-25T20:14:32.634Z,10.40
2018-09-25T20:17:06.194Z,10.40
2018-09-25T20:19:39.960Z,10.30
2018-09-25T20:22:13.714Z,10.30
2018-09-25T20:24:47.465Z,10.30
2018-09-25T20:27:21.061Z,10.20
2018-09-25T20:29:54.665Z,10.20
2018-09-25T20:32:28.226Z,10.20
2018-09-25T20:35:01.985Z,10.20
2018-09-25T20:37:35.546Z,10.10
2018-09-25T20:40:09.146Z,10.00
2018-09-25T20:42:42.916Z,10.00
2018-09-25T20:45:16.491Z,10.00
2018-09-25T20:47:50.317Z,10.00
2018-09-25T20:50:23.775Z,10.00
2018-09-25T20:52:57.588Z,10.00
2018-09-25T20:55:31.238Z,10.00
2018-09-25T20:58:04.712Z,10.00
2018-09-25T21:00:38.435Z,9.90
2018-09-25T21:03:11.975Z,9.90
2018-09-25T21:05:45.617Z,9.90
2018-09-25T21:08:19.244Z,9.80
2018-09-25T21:10:53.063Z,9.80
2018-09-25T21:13:26.841Z,9.80
2018-09-25T21:16:00.416Z,9.70
2018-09-25T21:18:34.103Z,9.60
2018-09-25T21:21:07.595Z,9.50
2018-09-25T21:23:41.411Z,9.50
2018-09-25T21:26:14.995Z,9.50
2018-09-25T21:28:48.570Z,9.50
2018-09-25T21:31:22.129Z,9.50
2018-09-25T21:33:55.756Z,9.50
2018-09-25T21:36:29.171Z,9.50
2018-09-25T21:39:02.859Z,9.50
2018-09-25T21:41:36.373Z,9.50
2018-09-25T21:44:10.069Z,9.50
2018-09-25T21:46:43.510Z,9.60
2018-09-25T21:49:17.119Z,9.60
2018-09-25T21:51:50.920Z,9.70
2018-09-25T21:54:24.558Z,9.70
2018-09-25T21:56:58.238Z,9.70
2018-09-25T21:59:31.690Z,9.70
2018-09-25T22:02:05.421Z,9.70
2018-09-25T22:04:38.941Z,9.70
2018-09-25T22:07:12.681Z,9.70
2018-09-25T22:09:46.277Z,9.70
2018-09-25T22:12:19.808Z,9.70
2018-09-25T22:14:53.603Z,9.70
2018-09-25T22:17:27.177Z,9.70
2018-09-25T22:20:00.913Z,9.70
2018-09-25T22:22:34.429Z,9.70
2018-09-25T22:25:07.993Z,9.60
2018-09-25T22:27:41.485Z,9.60
2018-09-25T22:30:14.992Z,9.60
2018-09-25T22:32:48.671Z,9.60
2018-09-25T22:35:22.210Z,9.50
2018-09-25T22:37:55.897Z,9.50
2018-09-25T22:40:29.671Z,9.60
2018-09-25T22:43:03.305Z,9.60
2018-09-25T22:45:36.882Z,9.60
2018-09-25T22:48:10.360Z,9.60
2018-09-25T22:50:44.194Z,9.70
2018-09-25T22:53:17.813Z,9.60
2018-09-25T22:55:51.381Z,9.60
2018-09-25T22:58:24.851Z,9.50
2018-09-25T23:00:58.562Z,9.50
2018-09-25T23:03:32.098Z,9.50
2018-09-25T23:06:05.734Z,9.40
2018-09-25T23:08:39.305Z,9.40
2018-09-25T23:11:12.841Z,9.40
2018-09-25T23:13:46.510Z,9.40
2018-09-25T23:16:19.968Z,9.30
2018-09-25T23:18:53.640Z,9.30
2018-09-25T23:21:27.276Z,9.20
2018-09-25T23:24:01.082Z,9.20
2018-09-25T23:26:34.676Z,9.20
2018-09-25T23:29:08.403Z,9.10
2018-09-25T23:31:42.058Z,9.10
2018-09-25T23:34:15.669Z,9.10
2018-09-25T23:36:49.446Z,9.10
2018-09-25T23:39:22.941Z,9.10
2018-09-25T23:42:04.385Z,9.10
2018-09-25T23:44:37.946Z,9.10
2018-09-25T23:47:15.518Z,9.00
2018-09-25T23:49:53.133Z,9.10
2018-09-25T23:52:26.402Z,9.10
2018-09-25T23:55:00.034Z,9.20
2018-09-25T23:57:34.133Z,9.20
